Time;durP1;ratioP1;P1;durP2;ratioP2;P2;SDS_P1;SDS_P2;PMS_P1;PMS_P2;Temp;Humidity;BMP_temperature;BMP_pressure;BME280_temperature;BME280_humidity;BME280_pressure;Samples;Min_cycle;Max_cycle;Signal;HPM_P1;HPM_P2
2023/04/22 00:02:06;;;;;;;63.07;33.67;;;;;;;17.50;51.61;100915.47;5028218;28;20025;-69
2023/04/22 00:04:32;;;;;;;62.57;34.50;;;;;;;17.50;50.67;100897.84;5045708;28;20029;-69
2023/04/22 00:06:58;;;;;;;58.43;31.20;;;;;;;17.66;51.04;100903.41;5046283;28;20033;-69
2023/04/22 00:09:24;;;;;;;64.47;34.43;;;;;;;17.41;51.28;100906.97;5027725;28;20502;-70
2023/04/22 00:11:49;;;;;;;62.20;33.20;;;;;;;17.87;49.88;100908.78;5028982;28;20017;-69
2023/04/22 00:14:14;;;;;;;62.80;34.33;;;;;;;17.58;49.63;100910.78;5028538;28;20108;-68
2023/04/22 00:16:40;;;;;;;66.73;35.47;;;;;;;16.60;52.24;100913.34;5030140;28;20108;-68
2023/04/22 00:19:05;;;;;;;65.73;35.10;;;;;;;17.04;50.96;100916.25;5047004;28;20025;-69
2023/04/22 00:21:31;;;;;;;62.30;33.20;;;;;;;16.34;53.79;100917.72;5049370;28;20036;-68
2023/04/22 00:23:57;;;;;;;65.30;34.77;;;;;;;16.42;53.75;100910.41;5039716;28;20092;-68
2023/04/22 00:26:23;;;;;;;70.10;34.30;;;;;;;16.90;52.06;100915.91;5028220;28;20033;-68
2023/04/22 00:28:48;;;;;;;60.17;33.37;;;;;;;15.67;56.84;100916.25;5067127;28;20111;-68
2023/04/22 00:31:14;;;;;;;61.63;31.93;;;;;;;16.22;54.05;100912.84;5069471;28;20028;-68
2023/04/22 00:33:39;;;;;;;62.83;33.50;;;;;;;16.14;55.16;100910.44;5043898;28;20026;-68
2023/04/22 00:36:05;;;;;;;61.07;33.43;;;;;;;16.26;54.28;100903.91;5028743;28;20076;-68
2023/04/22 00:38:31;;;;;;;61.20;33.20;;;;;;;16.89;53.26;100903.59;5030395;28;20043;-69
2023/04/22 00:40:56;;;;;;;74.67;35.30;;;;;;;16.74;52.14;100897.03;5028760;28;20032;-68
2023/04/22 00:43:22;;;;;;;64.70;33.43;;;;;;;16.83;52.19;100904.66;5033265;28;20156;-69
2023/04/22 00:45:48;;;;;;;68.50;35.97;;;;;;;16.65;52.04;100900.00;5049903;28;20029;-68
2023/04/22 00:48:14;;;;;;;67.93;34.53;;;;;;;16.76;52.19;100904.00;5049713;28;20102;-68
2023/04/22 00:50:39;;;;;;;70.00;35.10;;;;;;;16.83;51.45;100909.03;5048798;28;20496;-68
2023/04/22 00:53:05;;;;;;;68.57;34.90;;;;;;;16.04;52.58;100915.16;5031467;28;20048;-68
2023/04/22 00:55:31;;;;;;;68.23;34.53;;;;;;;15.91;54.84;100916.47;5029715;28;20026;-69
2023/04/22 00:57:59;;;;;;;67.70;34.73;;;;;;;16.52;53.30;100920.66;5048315;28;20473;-68
2023/04/22 01:00:26;;;;;;;67.77;34.27;;;;;;;16.65;53.39;100914.06;5062043;28;20025;-68
2023/04/22 01:02:53;;;;;;;68.63;34.90;;;;;;;17.05;50.74;100915.34;5049381;28;20476;-68
2023/04/22 01:05:19;;;;;;;60.40;31.83;;;;;;;16.48;52.87;100919.91;5028646;28;20021;-69
2023/04/22 01:07:44;;;;;;;62.53;31.97;;;;;;;16.64;51.15;100920.25;5054685;28;20043;-68
2023/04/22 01:10:10;;;;;;;54.57;28.50;;;;;;;16.55;51.51;100926.69;5075922;28;20017;-68
2023/04/22 01:12:35;;;;;;;52.20;29.50;;;;;;;16.37;51.81;100917.59;5074013;28;20055;-68
2023/04/22 01:15:01;;;;;;;54.37;29.00;;;;;;;16.48;51.35;100913.78;5055191;28;20110;-68
2023/04/22 01:17:27;;;;;;;55.17;27.83;;;;;;;16.63;50.30;100918.53;5034099;28;20207;-68
2023/04/22 01:19:54;;;;;;;56.13;29.73;;;;;;;16.34;51.20;100912.44;5049237;28;20495;-69
2023/04/22 01:22:21;;;;;;;49.57;26.40;;;;;;;16.47;51.52;100906.75;5042885;28;20358;-68
2023/04/22 01:24:47;;;;;;;57.43;29.67;;;;;;;16.31;50.76;100915.19;5046434;28;20025;-68
2023/04/22 01:27:13;;;;;;;64.80;27.87;;;;;;;16.27;51.81;100910.94;5052500;28;20128;-69
2023/04/22 01:29:38;;;;;;;53.17;27.53;;;;;;;16.20;52.08;100914.69;5039555;28;20164;-69
2023/04/22 01:32:05;;;;;;;47.87;26.13;;;;;;;16.19;53.05;100912.94;5045316;28;20028;-68
2023/04/22 01:34:31;;;;;;;47.03;26.87;;;;;;;16.31;51.79;100911.66;5055096;28;20043;-69
2023/04/22 01:36:57;;;;;;;55.23;29.83;;;;;;;16.27;52.47;100914.41;5054245;28;20650;-69
2023/04/22 01:39:22;;;;;;;52.77;29.50;;;;;;;16.38;51.48;100919.34;5033172;28;20116;-68
2023/04/22 01:41:48;;;;;;;56.20;30.03;;;;;;;16.28;51.13;100904.75;5035746;28;20037;-69
2023/04/22 01:44:14;;;;;;;51.97;29.00;;;;;;;16.16;51.92;100899.88;5036634;28;20024;-68
2023/04/22 01:46:40;;;;;;;62.53;34.27;;;;;;;15.77;52.42;100907.16;5073697;28;20038;-68
2023/04/22 01:49:05;;;;;;;64.17;33.23;;;;;;;16.44;50.81;100908.59;5064938;28;20025;-69
2023/04/22 01:51:31;;;;;;;54.53;29.77;;;;;;;16.31;51.40;100907.28;5035238;28;20516;-69
2023/04/22 01:53:56;;;;;;;63.03;32.33;;;;;;;15.92;52.88;100907.63;5035229;28;20025;-68
2023/04/22 01:56:22;;;;;;;56.77;31.83;;;;;;;16.37;51.37;100909.69;5055356;28;20036;-69
2023/04/22 01:58:47;;;;;;;65.53;34.37;;;;;;;16.16;51.58;100910.41;5053048;28;20403;-68
2023/04/22 02:01:13;;;;;;;61.33;32.57;;;;;;;16.20;51.04;100909.41;5049726;28;20083;-68
2023/04/22 02:03:38;;;;;;;58.80;32.13;;;;;;;16.13;51.68;100907.84;5054411;28;20075;-69
2023/04/22 02:06:04;;;;;;;61.13;32.40;;;;;;;16.23;51.04;100902.25;5066814;28;20051;-68
2023/04/22 02:08:29;;;;;;;52.27;29.70;;;;;;;16.15;51.70;100901.63;5072743;28;20052;-69
2023/04/22 02:10:56;;;;;;;67.70;29.87;;;;;;;16.00;52.27;100918.78;5039914;28;20340;-68
2023/04/22 02:13:21;;;;;;;66.40;29.50;;;;;;;15.85;53.17;100914.00;5033413;28;20052;-68
2023/04/22 02:15:47;;;;;;;100.00;28.23;;;;;;;15.85;51.93;100920.13;5057279;28;20483;-68
2023/04/22 02:18:12;;;;;;;59.70;27.50;;;;;;;16.06;51.71;100918.59;5057853;28;20033;-69
2023/04/22 02:20:38;;;;;;;121.07;30.17;;;;;;;16.21;51.23;100919.03;5049968;28;20059;-69
2023/04/22 02:23:04;;;;;;;101.07;27.33;;;;;;;15.84;53.43;100917.53;5048848;28;20021;-69
2023/04/22 02:25:30;;;;;;;124.87;25.03;;;;;;;15.78;53.03;100918.56;5070490;28;20048;-68
2023/04/22 02:27:56;;;;;;;120.30;28.13;;;;;;;15.50;54.56;100918.53;5050897;28;20030;-68
2023/04/22 02:30:21;;;;;;;93.73;26.87;;;;;;;15.85;53.55;100914.00;5051143;28;20032;-68
2023/04/22 02:32:47;;;;;;;198.40;29.97;;;;;;;15.14;54.86;100916.00;5040757;28;20497;-68
2023/04/22 02:35:12;;;;;;;277.97;31.70;;;;;;;14.75;56.52;100912.66;5030066;28;20017;-69
2023/04/22 02:37:38;;;;;;;175.50;27.97;;;;;;;15.31;54.76;100911.16;5049597;28;20456;-69
2023/04/22 02:40:06;;;;;;;122.23;26.50;;;;;;;15.47;54.04;100903.69;5070220;28;20511;-68
2023/04/22 02:42:31;;;;;;;111.63;27.40;;;;;;;15.06;54.59;100903.94;5031598;28;20087;-68
2023/04/22 02:44:57;;;;;;;100.30;27.27;;;;;;;15.64;52.92;100895.25;5031437;28;20029;-68
2023/04/22 02:47:22;;;;;;;64.57;27.40;;;;;;;15.21;53.45;100894.75;5040532;28;20400;-69
2023/04/22 02:49:48;;;;;;;65.20;27.03;;;;;;;14.95;55.21;100889.34;5049533;28;20024;-68
2023/04/22 02:52:13;;;;;;;51.13;26.47;;;;;;;14.92;55.45;100887.69;5053204;28;20044;-68
2023/04/22 02:54:39;;;;;;;56.00;28.83;;;;;;;15.46;53.52;100874.75;5058869;28;20055;-68
2023/04/22 02:57:04;;;;;;;49.80;27.57;;;;;;;15.62;52.49;100878.66;5060352;28;20426;-68
2023/04/22 02:59:30;;;;;;;50.47;26.83;;;;;;;16.09;51.31;100871.03;5046997;28;20025;-68
2023/04/22 03:01:56;;;;;;;53.37;27.27;;;;;;;15.78;53.13;100865.84;5033829;28;20094;-68
2023/04/22 03:04:21;;;;;;;51.80;27.07;;;;;;;16.19;52.25;100862.84;5029148;28;20111;-68
2023/04/22 03:06:50;;;;;;;54.20;28.73;;;;;;;16.05;52.08;100853.59;5031553;28;20029;-68
2023/04/22 03:09:16;;;;;;;47.40;27.70;;;;;;;16.04;51.98;100859.78;5029611;28;20079;-69
2023/04/22 03:11:42;;;;;;;58.07;30.60;;;;;;;16.14;52.28;100862.97;5032224;28;20033;-68
2023/04/22 03:14:07;;;;;;;55.50;29.60;;;;;;;16.49;51.36;100855.66;5046414;28;20029;-68
2023/04/22 03:16:32;;;;;;;52.27;29.17;;;;;;;16.23;51.54;100861.81;5050678;28;20108;-68
2023/04/22 03:18:58;;;;;;;54.83;29.70;;;;;;;16.34;52.08;100851.78;5038361;28;20029;-68
2023/04/22 03:21:23;;;;;;;57.27;30.33;;;;;;;16.78;50.82;100849.38;5070761;28;20029;-69
2023/04/22 03:23:49;;;;;;;53.20;29.33;;;;;;;16.54;51.06;100850.22;5069668;28;20074;-68
2023/04/22 03:26:14;;;;;;;55.93;29.27;;;;;;;16.20;51.37;100851.38;5064770;28;20477;-68
2023/04/22 03:28:39;;;;;;;55.93;30.03;;;;;;;16.21;51.79;100847.81;5063854;28;20480;-69
2023/04/22 03:31:05;;;;;;;57.57;30.80;;;;;;;16.34;51.31;100841.22;5031888;28;20511;-68
2023/04/22 03:33:30;;;;;;;55.37;30.43;;;;;;;16.51;51.24;100837.16;5028358;28;20064;-69
2023/04/22 03:35:55;;;;;;;56.07;30.17;;;;;;;16.89;50.40;100840.25;5050765;28;20082;-69
2023/04/22 03:38:21;;;;;;;59.10;31.00;;;;;;;16.42;51.67;100836.56;5050426;28;20058;-68
2023/04/22 03:40:46;;;;;;;57.00;30.80;;;;;;;16.60;51.67;100836.84;5031192;28;20045;-69
2023/04/22 03:43:11;;;;;;;53.80;30.53;;;;;;;16.75;50.67;100838.91;5029518;28;20018;-69
2023/04/22 03:45:37;;;;;;;52.03;29.20;;;;;;;16.69;50.80;100833.88;5047177;28;20036;-69
2023/04/22 03:48:02;;;;;;;53.10;30.30;;;;;;;16.76;50.48;100829.22;5031795;28;20030;-68
2023/04/22 03:50:28;;;;;;;57.37;30.77;;;;;;;16.98;50.10;100829.34;5030290;28;20389;-69
2023/04/22 03:52:53;;;;;;;54.53;31.10;;;;;;;15.86;52.99;100826.13;5028466;28;20401;-68
2023/04/22 03:55:19;;;;;;;57.67;31.47;;;;;;;16.38;51.20;100824.38;5056285;28;20036;-68
2023/04/22 03:57:44;;;;;;;54.90;31.70;;;;;;;16.76;50.57;100818.66;5069241;28;20020;-69
2023/04/22 04:00:10;;;;;;;54.03;31.87;;;;;;;15.56;53.32;100823.50;5050742;28;20033;-69
2023/04/22 04:02:36;;;;;;;52.57;30.17;;;;;;;15.60;55.08;100819.88;5046593;28;20500;-68
2023/04/22 04:05:01;;;;;;;52.67;30.47;;;;;;;16.00;53.03;100812.50;5052291;28;20034;-69
2023/04/22 04:07:26;;;;;;;58.67;31.43;;;;;;;16.51;51.25;100808.13;5056458;28;20044;-69
2023/04/22 04:09:52;;;;;;;55.53;31.87;;;;;;;15.98;53.08;100809.91;5050295;28;20413;-68
2023/04/22 04:12:17;;;;;;;56.17;29.40;;;;;;;15.75;54.97;100803.56;5049796;28;20090;-69
2023/04/22 04:14:43;;;;;;;55.73;31.30;;;;;;;16.44;52.74;100803.09;5049751;28;20059;-69
2023/04/22 04:17:08;;;;;;;58.77;31.10;;;;;;;16.74;51.05;100800.25;5058388;28;20040;-69
2023/04/22 04:19:34;;;;;;;57.80;31.30;;;;;;;16.06;52.18;100807.00;5050252;28;20083;-69
2023/04/22 04:22:00;;;;;;;54.37;30.90;;;;;;;15.49;54.39;100803.53;5049218;28;20082;-69
2023/04/22 04:24:26;;;;;;;57.20;30.60;;;;;;;15.69;54.25;100801.13;5047109;28;20033;-69
2023/04/22 04:26:52;;;;;;;63.43;33.53;;;;;;;15.72;54.09;100795.75;5055521;28;20460;-68
2023/04/22 04:29:19;;;;;;;60.47;33.60;;;;;;;16.02;52.73;100790.44;5055401;28;20472;-69
2023/04/22 04:31:44;;;;;;;55.80;31.30;;;;;;;16.57;51.96;100792.09;5049829;28;20029;-68
2023/04/22 04:34:09;;;;;;;58.20;31.17;;;;;;;16.92;50.91;100785.53;5048324;28;20040;-69
2023/04/22 04:36:35;;;;;;;59.43;32.37;;;;;;;16.51;52.47;100793.16;5064968;28;20036;-69
2023/04/22 04:39:00;;;;;;;61.43;32.70;;;;;;;16.65;51.81;100786.53;5062476;28;20064;-68
2023/04/22 04:41:26;;;;;;;63.60;32.67;;;;;;;16.84;51.27;100790.22;5028813;28;20041;-69
2023/04/22 04:43:52;;;;;;;63.67;32.87;;;;;;;16.60;51.70;100797.25;5048379;28;20071;-69
2023/04/22 04:46:18;;;;;;;55.77;30.57;;;;;;;16.72;51.88;100802.09;5044745;28;20025;-68
2023/04/22 04:48:45;;;;;;;54.07;31.33;;;;;;;16.55;52.42;100794.75;5029752;28;20033;-69
2023/04/22 04:51:11;;;;;;;53.57;31.23;;;;;;;16.59;51.78;100791.09;5028456;28;20091;-68
2023/04/22 04:53:36;;;;;;;52.77;31.17;;;;;;;16.75;50.61;100796.69;5028529;28;20034;-69
2023/04/22 04:56:02;;;;;;;57.83;31.40;;;;;;;16.63;51.05;100787.44;5031239;28;20048;-69
2023/04/22 04:58:28;;;;;;;55.83;32.37;;;;;;;17.04;49.73;100781.59;5049071;28;20112;-69
2023/04/22 05:00:53;;;;;;;59.73;32.37;;;;;;;16.41;51.57;100792.63;5046836;28;20036;-69
2023/04/22 05:03:18;;;;;;;60.03;32.40;;;;;;;16.54;52.72;100787.78;5035456;28;20024;-69
2023/04/22 05:05:47;;;;;;;48.50;27.70;;;;;;;16.66;52.30;100775.06;5029604;28;20103;-70
2023/04/22 05:08:12;;;;;;;58.47;32.60;;;;;;;16.42;51.93;100767.13;5061057;28;20040;-69
2023/04/22 05:10:38;;;;;;;57.33;32.23;;;;;;;17.26;50.34;100759.63;5033281;28;20033;-69
2023/04/22 05:13:07;;;;;;;55.00;31.50;;;;;;;16.79;50.68;100771.06;5044403;28;20063;-69
2023/04/22 05:15:32;;;;;;;54.83;32.07;;;;;;;17.05;50.54;100778.03;5049640;28;20037;-69
2023/04/22 05:17:57;;;;;;;58.77;32.67;;;;;;;16.39;52.07;100783.91;5061026;28;20039;-71
2023/04/22 05:20:23;;;;;;;56.53;31.73;;;;;;;16.67;51.82;100782.91;5032929;28;20029;-69
2023/04/22 05:22:48;;;;;;;53.83;31.40;;;;;;;16.55;52.33;100788.63;5044712;28;20025;-70
2023/04/22 05:25:14;;;;;;;59.93;34.10;;;;;;;16.54;52.17;100798.34;5028170;28;20071;-69
2023/04/22 05:27:40;;;;;;;57.83;33.53;;;;;;;17.01;51.39;100791.38;5028996;28;20033;-70
2023/04/22 05:30:06;;;;;;;60.63;34.10;;;;;;;16.54;51.38;100805.38;5040748;28;20021;-69
2023/04/22 05:32:32;;;;;;;54.80;31.90;;;;;;;17.03;51.43;100800.97;5048325;28;20029;-70
2023/04/22 05:34:57;;;;;;;53.67;31.93;;;;;;;16.52;52.23;100807.22;5049253;28;20057;-70
2023/04/22 05:37:23;;;;;;;56.27;31.83;;;;;;;15.92;53.92;100807.47;5047001;28;20102;-69
2023/04/22 05:39:48;;;;;;;57.00;31.77;;;;;;;15.70;55.15;100804.63;5045680;28;20439;-69
2023/04/22 05:42:13;;;;;;;53.00;31.17;;;;;;;14.79;58.50;100810.81;5042858;28;20040;-69
2023/04/22 05:44:39;;;;;;;54.57;31.93;;;;;;;15.73;57.59;100802.75;5043408;28;20075;-69
2023/04/22 05:47:04;;;;;;;56.93;32.37;;;;;;;15.74;56.37;100804.50;5047967;28;20047;-69
2023/04/22 05:49:29;;;;;;;55.70;33.67;;;;;;;16.30;55.06;100800.03;5048817;28;20068;-70
2023/04/22 05:51:55;;;;;;;56.90;32.33;;;;;;;16.67;54.07;100801.38;5051394;28;20126;-69
2023/04/22 05:54:20;;;;;;;57.67;31.80;;;;;;;16.83;53.15;100792.91;5049355;28;20490;-69
2023/04/22 05:56:46;;;;;;;51.60;31.30;;;;;;;17.16;52.05;100795.25;5049311;28;20089;-69
2023/04/22 05:59:11;;;;;;;53.03;31.83;;;;;;;17.50;51.42;100788.66;5048745;28;20119;-70
2023/04/22 06:01:37;;;;;;;53.30;32.13;;;;;;;16.64;52.30;100788.31;5059488;28;20081;-69
2023/04/22 06:04:08;;;;;;;59.20;32.47;;;;;;;16.95;53.49;100777.53;5071323;28;20484;-69
2023/04/22 06:06:34;;;;;;;58.60;33.20;;;;;;;16.39;53.21;100777.75;5050929;28;20029;-69
2023/04/22 06:08:59;;;;;;;53.93;32.10;;;;;;;17.45;52.82;100771.19;5051155;28;20575;-69
2023/04/22 06:11:25;;;;;;;55.03;32.50;;;;;;;17.62;51.94;100773.16;5046416;28;20095;-69
2023/04/22 06:13:50;;;;;;;49.87;30.83;;;;;;;17.62;51.32;100762.59;5060546;28;20063;-69
2023/04/22 06:16:16;;;;;;;49.17;31.60;;;;;;;18.10;50.51;100763.28;5052182;28;20029;-69
2023/04/22 06:18:42;;;;;;;46.67;31.03;;;;;;;18.57;49.03;100759.50;5050119;28;20025;-69
2023/04/22 06:21:08;;;;;;;44.83;28.40;;;;;;;18.56;48.91;100764.84;5064811;28;20039;-69
2023/04/22 06:23:33;;;;;;;43.17;28.70;;;;;;;18.31;49.53;100766.81;5072334;28;20020;-72
2023/04/22 06:26:00;;;;;;;42.13;27.97;;;;;;;18.70;48.45;100757.16;5070885;28;20399;-72
2023/04/22 06:28:26;;;;;;;40.80;26.93;;;;;;;18.71;49.12;100769.50;5053397;28;20435;-73
2023/04/22 06:30:51;;;;;;;41.27;26.77;;;;;;;18.44;49.42;100769.78;5048280;28;20025;-72
2023/04/22 06:33:16;;;;;;;40.10;25.93;;;;;;;18.26;50.84;100758.22;5037113;28;20025;-72
2023/04/22 06:35:42;;;;;;;36.77;25.23;;;;;;;18.71;49.78;100766.84;5051581;28;20025;-72
2023/04/22 06:38:07;;;;;;;37.53;26.00;;;;;;;18.39;50.28;100763.81;5066730;28;20020;-72
2023/04/22 06:40:32;;;;;;;38.37;25.97;;;;;;;18.47;51.58;100753.75;5050467;28;20112;-72
2023/04/22 06:42:58;;;;;;;38.53;25.20;;;;;;;18.68;50.21;100753.72;5050103;28;20047;-72
2023/04/22 06:45:24;;;;;;;35.63;25.17;;;;;;;18.32;50.65;100757.06;5048272;28;20035;-72
2023/04/22 06:47:52;;;;;;;37.13;25.83;;;;;;;19.58;49.21;100750.44;5045360;28;20036;-71
2023/04/22 06:50:19;;;;;;;35.80;24.50;;;;;;;19.67;48.49;100749.09;5048452;28;20496;-72
2023/04/22 06:52:44;;;;;;;34.53;24.70;;;;;;;19.58;47.58;100749.59;5049550;28;20048;-72
2023/04/22 06:55:11;;;;;;;33.50;25.10;;;;;;;19.26;48.87;100744.03;5049372;28;20052;-72
2023/04/22 06:57:37;;;;;;;39.30;25.17;;;;;;;19.80;47.92;100747.59;5060330;28;20197;-72
2023/04/22 07:00:09;;;;;;;32.73;23.70;;;;;;;19.55;49.83;100749.72;5048067;28;20684;-72
2023/04/22 07:02:35;;;;;;;30.67;23.10;;;;;;;19.07;49.86;100744.91;5043948;28;20029;-72
2023/04/22 07:05:00;;;;;;;34.43;24.13;;;;;;;19.26;49.17;100738.72;5062524;28;20336;-72
2023/04/22 07:07:26;;;;;;;31.03;22.77;;;;;;;20.06;48.36;100748.09;5049244;28;20023;-72
2023/04/22 07:09:51;;;;;;;31.87;22.67;;;;;;;20.24;48.04;100748.09;5045985;28;20217;-72
2023/04/22 07:12:16;;;;;;;33.33;23.83;;;;;;;20.58;47.11;100735.66;5038023;28;20533;-72
2023/04/22 07:14:45;;;;;;;28.47;21.57;;;;;;;19.21;50.08;100735.47;5030269;28;20249;-73
2023/04/22 07:17:11;;;;;;;31.67;22.87;;;;;;;19.53;47.83;100743.63;5043994;28;20103;-71
2023/04/22 07:19:37;;;;;;;32.60;22.00;;;;;;;19.97;48.83;100756.50;5046209;28;20425;-71
2023/04/22 07:22:05;;;;;;;28.70;22.03;;;;;;;20.71;46.59;100750.03;5037504;28;20017;-72
2023/04/22 07:24:31;;;;;;;29.03;21.40;;;;;;;19.97;47.58;100757.34;5032458;28;20053;-72
2023/04/22 07:26:57;;;;;;;28.27;21.05;;;;;;;21.01;45.74;100744.00;5030979;28;20481;-73
2023/04/22 07:29:22;;;;;;;25.80;19.93;;;;;;;21.35;45.43;100739.47;5047708;28;20033;-72
2023/04/22 07:31:48;;;;;;;25.10;19.07;;;;;;;20.78;45.12;100748.75;5049543;28;20021;-72
2023/04/22 07:34:13;;;;;;;27.30;19.07;;;;;;;21.23;45.21;100750.78;5048717;28;20492;-72
2023/04/22 07:36:39;;;;;;;24.15;19.70;;;;;;;21.62;44.53;100744.16;5029444;28;20025;-72
2023/04/22 07:39:05;;;;;;;25.63;19.25;;;;;;;21.34;46.11;100753.69;5035609;28;20033;-72
2023/04/22 07:41:30;;;;;;;28.23;19.08;;;;;;;22.14;44.56;100762.38;5048846;28;20479;-72
2023/04/22 07:43:56;;;;;;;26.73;19.55;;;;;;;22.72;43.25;100749.13;5049774;28;20455;-73
2023/04/22 07:46:21;;;;;;;25.08;17.88;;;;;;;23.43;40.53;100741.16;5047873;28;20032;-72
2023/04/22 07:48:46;;;;;;;21.02;16.70;;;;;;;23.90;41.45;100754.97;5051626;28;20469;-72
2023/04/22 07:51:12;;;;;;;21.58;15.77;;;;;;;22.25;41.13;100763.53;5050318;28;20032;-69
2023/04/22 07:53:37;;;;;;;18.42;14.30;;;;;;;24.10;40.50;100746.47;5051196;28;20043;-70
2023/04/22 07:56:06;;;;;;;17.35;13.65;;;;;;;24.87;39.44;100741.13;5052749;28;20029;-70
2023/04/22 07:58:31;;;;;;;18.63;14.35;;;;;;;24.87;38.07;100730.44;5053328;28;20031;-70
2023/04/22 08:00:57;;;;;;;22.05;13.95;;;;;;;25.66;35.87;100726.50;5051676;28;20481;-70
2023/04/22 08:03:22;;;;;;;15.82;11.95;;;;;;;26.44;35.18;100726.84;5046861;28;20647;-70
2023/04/22 08:05:48;;;;;;;14.35;11.30;;;;;;;26.75;34.98;100709.22;5053403;28;20033;-70
2023/04/22 08:08:13;;;;;;;15.30;11.88;;;;;;;27.14;34.12;100706.94;5048624;28;20033;-70
2023/04/22 08:10:39;;;;;;;13.68;10.13;;;;;;;27.77;31.77;100700.84;5054625;28;20384;-70
2023/04/22 08:13:04;;;;;;;14.63;11.27;;;;;;;27.55;32.20;100701.81;5047597;28;20182;-70
2023/04/22 08:15:30;;;;;;;12.65;10.55;;;;;;;27.71;32.22;100717.47;5048416;28;20111;-69
2023/04/22 08:17:55;;;;;;;12.45;10.50;;;;;;;28.54;31.04;100715.72;5051979;28;20024;-69
2023/04/22 08:20:21;;;;;;;12.73;9.25;;;;;;;27.67;32.27;100722.25;5054036;28;20455;-68
2023/04/22 08:22:47;;;;;;;13.02;10.23;;;;;;;27.08;31.31;100710.13;5049826;28;20106;-68
2023/04/22 08:25:13;;;;;;;14.77;10.75;;;;;;;26.87;33.15;100715.38;5052228;28;20507;-68
2023/04/22 08:27:38;;;;;;;14.07;11.50;;;;;;;26.79;34.85;100723.19;5050254;28;20028;-68
2023/04/22 08:30:05;;;;;;;13.60;10.82;;;;;;;26.27;32.93;100731.69;5051607;28;20114;-68
2023/04/22 08:32:31;;;;;;;11.98;9.95;;;;;;;26.03;33.60;100718.38;5055920;28;20055;-69
2023/04/22 08:34:56;;;;;;;13.93;11.20;;;;;;;26.55;35.29;100725.00;5050301;28;20083;-69
2023/04/22 08:37:21;;;;;;;13.55;10.70;;;;;;;27.77;33.19;100716.97;5050422;28;20032;-69
2023/04/22 08:39:47;;;;;;;11.10;9.88;;;;;;;28.43;30.53;100718.50;5055856;28;20037;-69
2023/04/22 08:42:14;;;;;;;11.73;10.02;;;;;;;28.66;30.79;100707.59;5060292;28;20021;-69
2023/04/22 08:44:40;;;;;;;14.40;10.07;;;;;;;28.01;30.94;100713.19;5048660;28;20079;-69
2023/04/22 08:47:06;;;;;;;13.98;10.45;;;;;;;27.69;32.40;100716.75;5050245;28;20028;-68
2023/04/22 08:49:34;;;;;;;12.25;10.95;;;;;;;27.54;32.54;100706.31;5051561;28;20040;-68
2023/04/22 08:51:59;;;;;;;12.35;9.77;;;;;;;28.17;31.63;100702.81;5050132;28;20074;-70
2023/04/22 08:54:24;;;;;;;10.00;8.95;;;;;;;28.38;30.38;100693.88;5053301;28;20103;-70
2023/04/22 08:56:50;;;;;;;9.63;8.63;;;;;;;29.47;28.90;100685.97;5045959;28;20033;-70
2023/04/22 08:59:17;;;;;;;10.20;9.10;;;;;;;28.57;30.80;100677.81;5036969;28;20033;-68
2023/04/22 09:01:43;;;;;;;11.60;10.07;;;;;;;29.64;29.64;100668.22;5033894;28;20536;-69
2023/04/22 09:04:10;;;;;;;12.15;10.40;;;;;;;27.21;33.17;100667.88;5052753;28;20127;-70
2023/04/22 09:06:37;;;;;;;11.02;9.93;;;;;;;27.42;32.39;100665.28;5049467;28;20423;-70
2023/04/22 09:09:02;;;;;;;10.07;8.98;;;;;;;27.99;30.33;100666.78;5050187;28;20028;-70
2023/04/22 09:11:29;;;;;;;10.18;9.05;;;;;;;27.57;31.75;100655.09;5052169;28;20028;-69
2023/04/22 09:13:55;;;;;;;12.35;9.65;;;;;;;27.58;31.89;100658.63;5052042;28;20021;-70
2023/04/22 09:16:20;;;;;;;12.95;9.82;;;;;;;26.13;34.26;100644.41;5050718;28;20030;-69
2023/04/22 09:18:45;;;;;;;14.40;10.45;;;;;;;26.09;34.79;100632.22;5049746;28;20032;-69
2023/04/22 09:21:11;;;;;;;10.85;9.45;;;;;;;26.39;33.17;100634.28;5055547;28;20036;-69
2023/04/22 09:23:51;;;;;;;11.43;10.05;;;;;;;25.70;34.75;100621.78;5050094;28;20079;-69
2023/04/22 09:26:25;;;;;;;13.43;10.00;;;;;;;26.16;34.04;100620.03;5063304;28;20484;-70
2023/04/22 09:28:59;;;;;;;13.07;10.23;;;;;;;25.58;34.42;100628.06;5056452;28;20028;-69
2023/04/22 09:31:26;;;;;;;13.05;11.65;;;;;;;24.84;35.92;100639.78;5053541;28;20098;-70
2023/04/22 09:33:55;;;;;;;13.55;10.25;;;;;;;23.61;38.08;100648.38;5052779;28;20025;-70
2023/04/22 09:36:28;;;;;;;14.27;11.13;;;;;;;24.67;37.25;100646.34;5052105;28;20476;-70
2023/04/22 09:38:55;;;;;;;;;;;;;;;24.80;35.53;100654.34;5053094;28;20035;-69
2023/04/22 09:41:31;;;;;;;11.13;9.93;;;;;;;25.23;35.57;100666.34;5056258;28;19916;-70
2023/04/22 09:43:58;;;;;;;17.23;10.38;;;;;;;26.06;35.04;100661.91;5050968;28;20036;-70
2023/04/22 09:46:24;;;;;;;11.82;10.30;;;;;;;27.47;33.69;100677.47;5056990;28;20531;-70
2023/04/22 09:48:52;;;;;;;14.32;9.80;;;;;;;27.08;31.48;100673.41;5058446;28;20028;-70
2023/04/22 09:51:18;;;;;;;12.07;9.95;;;;;;;26.12;34.41;100681.97;5058676;28;20039;-70
2023/04/22 09:53:55;;;;;;;11.80;10.13;;;;;;;27.15;33.86;100684.50;5048742;28;20025;-70
2023/04/22 09:56:22;;;;;;;13.27;9.27;;;;;;;27.40;31.61;100682.50;5053218;28;20116;-70
2023/04/22 09:58:51;;;;;;;10.55;9.38;;;;;;;27.70;30.96;100686.25;5057537;28;20037;-70
2023/04/22 10:01:18;;;;;;;11.75;9.77;;;;;;;27.85;32.42;100684.06;5055937;28;20079;-70
2023/04/22 10:03:44;;;;;;;10.95;9.60;;;;;;;27.23;32.17;100686.53;5047186;28;20461;-70
2023/04/22 10:06:09;;;;;;;12.82;10.25;;;;;;;26.42;34.58;100692.13;5057775;28;20035;-70
2023/04/22 10:08:35;;;;;;;11.82;9.60;;;;;;;26.61;33.81;100685.28;5052608;28;20037;-70
2023/04/22 10:11:01;;;;;;;11.63;10.35;;;;;;;26.31;33.53;100678.72;5054697;28;20509;-70
2023/04/22 10:13:26;;;;;;;12.27;10.63;;;;;;;26.82;33.75;100672.00;5053507;28;20040;-70
2023/04/22 10:15:53;;;;;;;11.57;8.82;;;;;;;26.04;33.72;100677.25;5057042;28;20028;-70
2023/04/22 10:18:27;;;;;;;12.38;9.80;;;;;;;26.29;32.56;100678.00;5054361;28;20029;-70
2023/04/22 10:20:54;;;;;;;11.25;9.32;;;;;;;26.83;32.68;100669.22;5053649;28;20154;-70
2023/04/22 10:23:22;;;;;;;11.93;8.93;;;;;;;26.15;33.68;100679.94;5055366;28;21566;-70
2023/04/22 10:25:50;;;;;;;13.73;9.55;;;;;;;25.51;36.13;100675.00;5054595;28;20182;-70
2023/04/22 10:28:16;;;;;;;10.55;8.40;;;;;;;25.01;36.50;100688.47;5054986;28;20033;-70
2023/04/22 10:30:42;;;;;;;11.52;9.60;;;;;;;24.52;36.00;100698.19;5050095;28;20041;-71
2023/04/22 10:33:19;;;;;;;11.25;9.85;;;;;;;24.29;37.50;100703.34;5056938;28;20481;-71
2023/04/22 10:36:09;;;;;;;11.75;10.10;;;;;;;24.54;37.17;100707.78;5057622;28;20288;-71
2023/04/22 10:38:37;;;;;;;10.93;9.40;;;;;;;24.97;36.26;100697.69;5053685;28;20374;-71
2023/04/22 10:41:04;;;;;;;14.05;10.75;;;;;;;24.21;37.20;100701.19;5055731;28;20033;-71
2023/04/22 10:43:47;;;;;;;11.35;9.93;;;;;;;24.39;37.10;100699.03;5050558;28;20112;-71
2023/04/22 10:46:38;;;;;;;11.82;9.88;;;;;;;24.82;37.46;100703.16;5057320;28;20055;-71
2023/04/22 10:49:09;;;;;;;11.82;9.43;;;;;;;24.97;36.55;100703.03;5045196;28;20029;-71
2023/04/22 10:51:44;;;;;;;11.98;9.35;;;;;;;24.67;36.69;100694.44;5057040;28;20485;-71
2023/04/22 10:54:25;;;;;;;13.73;8.77;;;;;;;25.04;34.78;100688.25;5053070;28;20028;-71
2023/04/22 10:57:04;;;;;;;11.85;9.50;;;;;;;25.25;35.28;100691.16;5053220;28;20063;-71
2023/04/22 10:59:31;;;;;;;13.52;9.68;;;;;;;25.45;35.25;100687.03;5054233;28;20033;-71
2023/04/22 11:02:05;;;;;;;12.30;9.32;;;;;;;24.65;36.57;100679.50;5051195;28;20032;-71
2023/04/22 11:04:31;;;;;;;13.32;9.98;;;;;;;24.94;36.46;100660.50;5053980;28;20083;-71
2023/04/22 11:07:28;;;;;;;11.98;9.57;;;;;;;24.73;36.67;100663.78;5048057;28;20029;-71